Time;durP1;ratioP1;P1;durP2;ratioP2;P2;SDS_P1;SDS_P2;PMS_P1;PMS_P2;Temp;Humidity;BMP_temperature;BMP_pressure;BME280_temperature;BME280_humidity;BME280_pressure;Samples;Min_cycle;Max_cycle;Signal;HPM_P1;HPM_P2
2023/10/04 15:41:08;;;;;;;4.33;1.93;;;16.90;99.90;;;;;;5121265;27;20926;-70
2023/10/04 15:43:35;;;;;;;4.83;2.50;;;16.80;99.90;;;;;;5104762;28;21207;-71
2023/10/04 15:46:02;;;;;;;2.80;2.60;;;16.80;99.90;;;;;;5101482;28;20922;-71
2023/10/04 15:48:29;;;;;;;3.80;2.60;;;16.80;99.90;;;;;;5107324;28;20475;-71
2023/10/04 15:50:56;;;;;;;2.47;2.10;;;16.80;99.90;;;;;;5107417;28;20481;-71
2023/10/04 15:53:24;;;;;;;2.67;2.47;;;16.70;99.90;;;;;;5108037;28;20464;-71
2023/10/04 15:55:51;;;;;;;3.03;2.83;;;16.70;99.90;;;;;;5106858;28;20667;-71
2023/10/04 15:58:19;;;;;;;4.57;2.70;;;16.60;99.90;;;;;;5108488;28;20520;-71
2023/10/04 16:00:45;;;;;;;3.40;2.00;;;16.60;99.90;;;;;;5107140;28;20480;-71
2023/10/04 16:03:13;;;;;;;7.10;2.63;;;16.60;99.90;;;;;;5101970;28;20465;-71
2023/10/04 16:05:40;;;;;;;4.43;2.63;;;16.60;99.90;;;;;;5107118;28;20567;-70
2023/10/04 16:08:08;;;;;;;2.20;1.83;;;16.50;99.90;;;;;;5107761;28;20493;-71
2023/10/04 16:10:35;;;;;;;5.57;3.00;;;16.50;99.90;;;;;;5107254;28;20461;-71
2023/10/04 16:13:01;;;;;;;12.47;4.60;;;16.50;99.90;;;;;;5107481;28;20464;-71
2023/10/04 16:15:30;;;;;;;4.90;3.17;;;16.40;99.90;;;;;;5105425;28;21014;-71
2023/10/04 16:17:58;;;;;;;3.20;2.03;;;16.30;99.90;;;;;;5101295;28;20481;-71
2023/10/04 16:20:25;;;;;;;7.00;3.07;;;16.30;99.90;;;;;;5107450;28;20492;-71
2023/10/04 16:22:56;;;;;;;3.57;2.27;;;16.30;99.90;;;;;;5107204;28;20518;-71
2023/10/04 16:25:23;;;;;;;6.37;2.33;;;16.30;99.90;;;;;;5106287;28;20567;-70
2023/10/04 16:27:51;;;;;;;5.63;2.63;;;16.20;99.90;;;;;;5097832;28;20470;-70
2023/10/04 16:30:18;;;;;;;5.63;2.93;;;16.20;99.90;;;;;;5106818;28;20460;-70
2023/10/04 16:32:47;;;;;;;3.20;2.33;;;16.10;99.90;;;;;;5105716;28;20471;-70
2023/10/04 16:35:14;;;;;;;2.87;2.23;;;16.20;99.90;;;;;;5105542;28;20487;-70
2023/10/04 16:37:41;;;;;;;2.30;2.00;;;16.10;99.90;;;;;;5104367;28;20480;-70
2023/10/04 16:40:09;;;;;;;2.33;2.13;;;16.10;99.90;;;;;;5099113;28;20489;-70
2023/10/04 16:42:36;;;;;;;3.33;3.03;;;16.10;99.90;;;;;;5097408;28;20479;-70
2023/10/04 16:45:03;;;;;;;4.00;2.87;;;16.00;99.90;;;;;;5098605;28;20994;-70
2023/10/04 16:47:31;;;;;;;5.03;2.40;;;16.00;99.90;;;;;;5099105;28;20517;-70
2023/10/04 16:49:59;;;;;;;6.27;2.63;;;15.90;99.90;;;;;;5104269;28;20473;-71
2023/10/04 16:52:26;;;;;;;4.70;2.73;;;15.90;99.90;;;;;;5090238;28;20504;-70
2023/10/04 16:54:53;;;;;;;3.53;3.23;;;15.80;99.90;;;;;;5090052;28;20588;-69
2023/10/04 16:57:20;;;;;;;6.13;2.80;;;15.80;99.90;;;;;;5092937;28;20545;-69
2023/10/04 16:59:49;;;;;;;3.03;2.63;;;15.80;99.90;;;;;;5091175;28;20493;-69
2023/10/04 17:02:16;;;;;;;4.40;2.73;;;15.70;99.90;;;;;;5085988;28;20461;-69
2023/10/04 17:04:43;;;;;;;4.20;2.83;;;15.70;99.90;;;;;;5090563;28;20484;-70
2023/10/04 17:07:11;;;;;;;6.90;3.10;;;15.60;99.90;;;;;;5090239;28;20464;-69
2023/10/04 17:09:37;;;;;;;5.47;2.90;;;15.60;99.90;;;;;;5088017;28;20448;-69
2023/10/04 17:12:05;;;;;;;2.87;2.63;;;15.50;99.90;;;;;;5083117;28;20469;-69
2023/10/04 17:14:32;;;;;;;2.93;2.43;;;15.50;99.90;;;;;;5087571;28;20500;-69
2023/10/04 17:16:58;;;;;;;4.27;3.27;;;15.50;99.90;;;;;;5081857;28;20475;-70
2023/10/04 17:19:25;;;;;;;3.40;2.60;;;15.40;99.90;;;;;;5085131;28;20469;-70
2023/10/04 17:21:52;;;;;;;7.03;2.87;;;15.40;99.90;;;;;;5090602;28;20465;-69
2023/10/04 17:24:20;;;;;;;2.50;2.30;;;15.40;99.90;;;;;;5088329;28;20491;-69
2023/10/04 17:26:48;;;;;;;4.03;3.40;;;15.40;99.90;;;;;;5092827;28;20469;-69
2023/10/04 17:29:15;;;;;;;2.53;2.33;;;15.30;99.90;;;;;;5088381;28;20496;-69
2023/10/04 17:31:41;;;;;;;2.80;2.60;;;15.30;99.90;;;;;;5085584;28;20462;-69
2023/10/04 17:34:10;;;;;;;4.00;2.97;;;15.30;99.90;;;;;;5092118;28;20484;-70
2023/10/04 17:36:36;;;;;;;4.20;2.87;;;15.20;99.90;;;;;;5092616;28;20468;-70
2023/10/04 17:39:03;;;;;;;3.83;2.77;;;15.20;99.90;;;;;;5092681;28;21039;-69
2023/10/04 17:41:31;;;;;;;6.67;3.17;;;15.20;99.90;;;;;;5092323;28;20656;-69
2023/10/04 17:43:58;;;;;;;3.73;2.70;;;15.20;99.90;;;;;;5090407;28;20491;-69
2023/10/04 17:46:25;;;;;;;4.30;2.60;;;15.10;99.90;;;;;;5091720;28;20468;-69
2023/10/04 17:48:51;;;;;;;3.87;3.10;;;15.10;99.90;;;;;;5092155;28;20455;-69
2023/10/04 17:51:18;;;;;;;4.63;2.90;;;15.10;99.90;;;;;;5092105;28;20467;-69
2023/10/04 17:53:45;;;;;;;7.70;3.53;;;15.10;99.90;;;;;;5091489;28;20488;-69
2023/10/04 17:56:11;;;;;;;4.53;2.70;;;15.10;99.90;;;;;;5092215;28;20537;-69
2023/10/04 17:58:40;;;;;;;4.27;2.80;;;15.00;99.90;;;;;;5092284;28;20460;-69
2023/10/04 18:01:07;;;;;;;4.60;2.83;;;15.00;99.90;;;;;;5092061;28;20489;-69
2023/10/04 18:03:33;;;;;;;3.77;3.47;;;15.00;99.90;;;;;;5090175;28;20460;-69
2023/10/04 18:06:00;;;;;;;5.90;2.90;;;15.00;99.90;;;;;;5091806;28;20459;-69
2023/10/04 18:08:27;;;;;;;5.47;3.20;;;15.00;99.90;;;;;;5092225;28;20464;-70
2023/10/04 18:10:54;;;;;;;4.63;3.40;;;15.00;99.90;;;;;;5091748;28;20467;-70
2023/10/04 18:13:21;;;;;;;3.70;3.17;;;15.00;99.90;;;;;;5091062;28;20498;-70
2023/10/04 18:15:50;;;;;;;3.20;2.80;;;15.00;99.90;;;;;;5091680;28;20484;-70
2023/10/04 18:18:17;;;;;;;7.33;3.50;;;14.90;99.90;;;;;;5091037;28;20476;-70
2023/10/04 18:20:44;;;;;;;3.70;3.30;;;14.90;99.90;;;;;;5091868;28;20489;-70
2023/10/04 18:23:13;;;;;;;4.73;3.50;;;14.90;99.90;;;;;;5091181;28;20528;-70
2023/10/04 18:25:39;;;;;;;5.33;3.77;;;14.90;99.90;;;;;;5091327;28;20483;-70
2023/10/04 18:28:07;;;;;;;4.20;3.63;;;14.90;99.90;;;;;;5091837;28;21179;-70
2023/10/04 18:30:33;;;;;;;3.17;2.90;;;15.00;99.90;;;;;;5091722;28;20452;-70
2023/10/04 18:33:03;;;;;;;6.90;5.10;;;15.00;99.90;;;;;;5090125;28;20467;-70
2023/10/04 18:35:30;;;;;;;7.57;3.93;;;15.00;99.90;;;;;;5091707;28;20536;-70
2023/10/04 18:37:57;;;;;;;7.53;3.17;;;15.00;99.90;;;;;;5093569;28;20496;-70
2023/10/04 18:40:26;;;;;;;7.90;3.70;;;15.00;99.90;;;;;;5091270;28;20499;-70
2023/10/04 18:42:53;;;;;;;8.70;2.80;;;15.00;99.90;;;;;;5090898;28;20463;-70
2023/10/04 18:45:22;;;;;;;3.70;2.80;;;15.00;99.90;;;;;;5087971;28;20491;-70
2023/10/04 18:47:49;;;;;;;9.70;4.00;;;15.00;99.90;;;;;;5089612;28;20495;-70
2023/10/04 18:50:21;;;;;;;3.70;3.13;;;14.90;99.90;;;;;;5088683;28;20455;-70
2023/10/04 18:52:48;;;;;;;5.33;3.67;;;15.00;99.90;;;;;;5081890;28;20465;-70
2023/10/04 18:55:16;;;;;;;4.07;3.00;;;14.90;99.90;;;;;;5088716;28;20483;-70
2023/10/04 18:57:44;;;;;;;5.90;3.40;;;15.00;99.90;;;;;;5091094;28;20452;-70
2023/10/04 19:00:13;;;;;;;7.13;3.27;;;14.90;99.90;;;;;;5087809;28;20578;-70
2023/10/04 19:02:40;;;;;;;6.63;3.30;;;14.90;99.90;;;;;;5089214;28;20493;-70
2023/10/04 19:05:08;;;;;;;6.67;3.00;;;15.00;99.90;;;;;;5085535;28;20484;-70
2023/10/04 19:07:36;;;;;;;7.03;2.70;;;15.00;99.90;;;;;;5090643;28;20464;-70
2023/10/04 19:10:03;;;;;;;4.73;2.87;;;15.00;99.90;;;;;;5080988;28;20463;-70
2023/10/04 19:12:30;;;;;;;5.27;3.10;;;15.00;99.90;;;;;;5090074;28;20468;-70
2023/10/04 19:14:57;;;;;;;5.63;3.17;;;15.00;99.90;;;;;;5090443;28;20483;-70
2023/10/04 19:17:24;;;;;;;6.77;2.43;;;15.00;99.90;;;;;;5090871;28;20459;-70
2023/10/04 19:19:52;;;;;;;5.57;2.93;;;15.00;99.90;;;;;;5089714;28;20464;-70
2023/10/04 19:22:18;;;;;;;5.10;2.77;;;15.00;99.90;;;;;;5090625;28;20534;-70
2023/10/04 19:24:47;;;;;;;2.97;2.77;;;15.00;99.90;;;;;;5090493;28;20566;-70
2023/10/04 19:27:14;;;;;;;3.60;2.30;;;15.10;99.90;;;;;;5086697;28;20919;-70
2023/10/04 19:29:41;;;;;;;4.20;3.10;;;15.00;99.90;;;;;;5090598;28;20462;-70
2023/10/04 19:32:09;;;;;;;7.63;2.47;;;15.00;99.90;;;;;;5090119;28;20530;-70
2023/10/04 19:34:36;;;;;;;4.33;2.50;;;15.00;99.90;;;;;;5090251;28;20847;-70
2023/10/04 19:37:03;;;;;;;3.03;2.83;;;15.00;99.90;;;;;;5089291;28;20457;-70
2023/10/04 19:39:30;;;;;;;6.00;2.90;;;15.00;99.90;;;;;;5089276;28;20472;-70
2023/10/04 19:41:59;;;;;;;3.80;2.97;;;14.90;99.90;;;;;;5084594;28;20526;-70
2023/10/04 19:44:25;;;;;;;2.93;2.73;;;14.90;99.90;;;;;;5085025;28;21224;-70
2023/10/04 19:46:52;;;;;;;6.40;3.00;;;14.80;99.90;;;;;;5089696;28;20458;-70
2023/10/04 19:49:19;;;;;;;3.30;3.20;;;14.80;99.90;;;;;;5090005;28;20462;-70
2023/10/04 19:51:46;;;;;;;4.87;3.00;;;14.80;99.90;;;;;;5089591;28;20529;-70
2023/10/04 19:54:12;;;;;;;9.00;3.13;;;14.70;99.90;;;;;;5083651;28;20533;-70
2023/10/04 19:56:39;;;;;;;7.23;2.93;;;14.70;99.90;;;;;;5090178;28;21042;-70
2023/10/04 19:59:08;;;;;;;4.80;3.23;;;14.70;99.90;;;;;;5088464;28;20481;-71
2023/10/04 20:01:36;;;;;;;3.27;2.77;;;14.60;99.90;;;;;;5089899;28;20585;-70
2023/10/04 20:04:03;;;;;;;2.90;2.70;;;14.60;99.90;;;;;;5089918;28;20475;-70
2023/10/04 20:06:30;;;;;;;3.53;2.47;;;14.50;99.90;;;;;;5084457;28;20451;-70
2023/10/04 20:08:57;;;;;;;5.30;2.40;;;14.50;99.90;;;;;;5088064;28;20523;-70
2023/10/04 20:11:24;;;;;;;4.10;3.17;;;14.50;99.90;;;;;;5089376;28;20527;-70
2023/10/04 20:13:52;;;;;;;4.20;3.70;;;14.40;99.90;;;;;;5086553;28;20487;-70
2023/10/04 20:16:22;;;;;;;4.20;3.13;;;14.40;99.90;;;;;;5090034;28;20865;-70
2023/10/04 20:18:49;;;;;;;3.83;3.40;;;14.40;99.90;;;;;;5089545;28;20509;-70
2023/10/04 20:21:16;;;;;;;2.63;2.50;;;14.40;99.90;;;;;;5089454;28;20485;-70
2023/10/04 20:23:43;;;;;;;9.50;2.80;;;14.40;99.90;;;;;;5085003;28;20524;-70
2023/10/04 20:26:11;;;;;;;3.67;2.90;;;14.40;99.90;;;;;;5090508;28;20467;-70
2023/10/04 20:28:38;;;;;;;11.13;3.90;;;14.40;99.90;;;;;;5092229;28;20470;-70
2023/10/04 20:31:05;;;;;;;4.50;2.80;;;14.30;99.90;;;;;;5088720;28;20462;-71
2023/10/04 20:33:33;;;;;;;8.07;3.80;;;14.30;99.90;;;;;;5087887;28;20459;-70
2023/10/04 20:36:01;;;;;;;6.90;3.97;;;14.30;99.90;;;;;;5090098;28;20463;-70
2023/10/04 20:38:29;;;;;;;4.33;3.40;;;14.30;99.90;;;;;;5092992;28;20482;-70
2023/10/04 20:40:56;;;;;;;6.40;3.33;;;14.30;99.90;;;;;;5087610;28;21686;-71
2023/10/04 20:43:23;;;;;;;9.50;4.00;;;14.30;99.90;;;;;;5086149;28;20477;-71
2023/10/04 20:45:50;;;;;;;5.20;2.80;;;14.30;99.90;;;;;;5090621;28;20464;-70
2023/10/04 20:48:17;;;;;;;5.27;2.90;;;14.30;99.90;;;;;;5091895;28;20465;-70
2023/10/04 20:50:45;;;;;;;3.20;2.90;;;14.30;99.90;;;;;;5092768;28;20786;-70
2023/10/04 20:53:13;;;;;;;9.07;3.60;;;14.20;99.90;;;;;;5092460;28;20852;-70
2023/10/04 20:55:40;;;;;;;3.57;2.90;;;14.20;99.90;;;;;;5091777;28;20482;-70
2023/10/04 20:58:08;;;;;;;7.67;2.97;;;14.20;99.90;;;;;;5090732;28;20466;-70
